createdAt,value
2022-12-09T00:01:14.152Z,16.23
2022-12-09T00:03:41.987Z,17.03
2022-12-09T00:06:15.215Z,16.70
2022-12-09T00:08:42.574Z,16.83
2022-12-09T00:11:10.268Z,17.40
2022-12-09T00:13:38.479Z,17.60
2022-12-09T00:16:09.679Z,16.67
2022-12-09T00:18:37.598Z,16.40
2022-12-09T00:21:24.173Z,17.33
2022-12-09T00:23:52.678Z,15.63
2022-12-09T00:26:21.301Z,17.77
2022-12-09T00:28:49.627Z,18.40
2022-12-09T00:31:18.799Z,16.90
2022-12-09T00:33:46.521Z,16.20
2022-12-09T00:36:15.082Z,16.40
2022-12-09T00:38:43.204Z,16.23
2022-12-09T00:41:11.325Z,15.67
2022-12-09T00:43:38.675Z,17.93
2022-12-09T00:46:06.163Z,15.73
2022-12-09T00:48:38.313Z,16.17
2022-12-09T00:51:06.733Z,16.30
2022-12-09T00:53:34.285Z,16.60
2022-12-09T00:56:02.253Z,16.10
2022-12-09T00:58:29.775Z,16.90
2022-12-09T01:00:57.933Z,15.53
2022-12-09T01:03:25.893Z,17.40
2022-12-09T01:05:55.056Z,15.10
2022-12-09T01:08:22.502Z,18.40
2022-12-09T01:10:50.212Z,15.77
2022-12-09T01:13:17.616Z,16.87
2022-12-09T01:15:45.286Z,16.47
2022-12-09T01:18:13.509Z,17.20
2022-12-09T01:20:43.836Z,15.87
2022-12-09T01:23:11.983Z,16.33
2022-12-09T01:25:39.535Z,16.00
2022-12-09T01:28:06.872Z,16.43
2022-12-09T01:30:34.883Z,15.13
2022-12-09T01:33:02.486Z,15.87
2022-12-09T01:35:30.055Z,17.10
2022-12-09T01:37:57.926Z,15.23
2022-12-09T01:40:25.794Z,17.50
2022-12-09T01:42:54.212Z,16.00
2022-12-09T01:45:22.058Z,15.70
2022-12-09T01:47:54.205Z,15.30
2022-12-09T01:50:21.966Z,17.40
2022-12-09T01:52:49.898Z,17.47
2022-12-09T01:55:17.585Z,15.70
2022-12-09T01:57:46.661Z,15.50
2022-12-09T02:00:15.066Z,15.77
2022-12-09T02:02:47.152Z,16.13
2022-12-09T02:05:18.767Z,16.97
2022-12-09T02:07:51.480Z,16.17
2022-12-09T02:10:19.864Z,16.10
2022-12-09T02:13:24.639Z,15.93
2022-12-09T02:15:55.051Z,14.77
2022-12-09T02:18:25.864Z,16.10
2022-12-09T02:20:59.438Z,16.17
2022-12-09T02:23:35.058Z,18.47
2022-12-09T02:26:02.710Z,17.17
2022-12-09T02:28:42.385Z,17.17
2022-12-09T02:31:28.858Z,16.83
2022-12-09T02:34:09.036Z,17.23
2022-12-09T02:36:44.175Z,18.20
2022-12-09T02:39:11.770Z,16.80
2022-12-09T02:41:43.983Z,15.87
2022-12-09T02:44:15.257Z,16.20
2022-12-09T02:46:44.525Z,17.60
2022-12-09T02:49:14.187Z,17.30
2022-12-09T02:51:43.249Z,16.77
2022-12-09T02:54:14.864Z,16.70
2022-12-09T02:56:46.435Z,15.93
2022-12-09T02:59:14.138Z,17.80
2022-12-09T03:01:45.650Z,17.77
2022-12-09T03:04:17.165Z,17.00
2022-12-09T03:06:48.503Z,17.50
2022-12-09T03:09:18.798Z,16.10
2022-12-09T03:11:47.887Z,16.93
2022-12-09T03:14:18.068Z,16.70
2022-12-09T03:16:50.464Z,16.60
2022-12-09T03:19:21.514Z,18.53
2022-12-09T03:21:50.322Z,18.00
2022-12-09T03:24:21.619Z,17.43
2022-12-09T03:26:50.529Z,18.53
2022-12-09T03:29:20.079Z,18.57
2022-12-09T03:31:48.062Z,17.70
2022-12-09T03:34:17.673Z,17.50
2022-12-09T03:36:47.335Z,18.40
2022-12-09T03:39:16.331Z,18.10
2022-12-09T03:41:48.926Z,17.30
2022-12-09T03:44:16.285Z,16.27
2022-12-09T03:46:43.926Z,18.13
2022-12-09T03:49:11.731Z,17.17
2022-12-09T03:51:42.611Z,18.00
2022-12-09T03:54:20.275Z,17.57
2022-12-09T03:56:50.048Z,18.70
2022-12-09T03:59:17.667Z,17.97
2022-12-09T04:01:45.952Z,16.57
2022-12-09T04:04:14.511Z,18.07
2022-12-09T04:06:42.321Z,18.10
2022-12-09T04:09:11.349Z,17.27
2022-12-09T04:11:38.596Z,19.07
2022-12-09T04:14:09.249Z,19.33
2022-12-09T04:16:39.515Z,20.40
2022-12-09T04:19:07.111Z,18.03
2022-12-09T04:21:34.252Z,18.00
2022-12-09T04:24:01.496Z,17.77
2022-12-09T04:26:29.209Z,19.43
2022-12-09T04:28:56.931Z,18.27
2022-12-09T04:31:25.069Z,18.10
2022-12-09T04:33:52.547Z,17.80
2022-12-09T04:36:21.194Z,18.40
2022-12-09T04:38:48.767Z,18.03
2022-12-09T04:41:16.946Z,18.30
2022-12-09T04:43:44.586Z,18.90
2022-12-09T04:46:13.036Z,16.63
2022-12-09T04:48:40.686Z,19.40
2022-12-09T04:51:09.728Z,17.43
2022-12-09T04:53:36.990Z,18.30
2022-12-09T04:56:15.279Z,18.03
2022-12-09T04:58:44.939Z,18.00
2022-12-09T05:01:22.649Z,18.10
2022-12-09T05:03:54.371Z,16.67
2022-12-09T05:06:22.970Z,17.10
2022-12-09T05:08:50.686Z,14.87
2022-12-09T05:11:19.433Z,16.67
2022-12-09T05:13:47.189Z,19.20
2022-12-09T05:16:18.355Z,19.97
2022-12-09T05:18:46.599Z,18.47
2022-12-09T05:21:15.858Z,18.30
2022-12-09T05:23:43.737Z,17.40
2022-12-09T05:26:12.661Z,16.10
2022-12-09T05:28:40.209Z,16.53
2022-12-09T05:31:11.405Z,16.60
2022-12-09T05:33:38.864Z,17.20
2022-12-09T05:36:09.365Z,17.30
2022-12-09T05:38:36.606Z,16.80
2022-12-09T05:41:04.076Z,17.90
2022-12-09T05:43:32.223Z,16.93
2022-12-09T05:45:59.634Z,18.70
2022-12-09T05:48:27.190Z,16.87
2022-12-09T05:51:02.046Z,18.73
2022-12-09T05:53:29.756Z,17.03
2022-12-09T05:55:57.493Z,20.27
2022-12-09T05:58:24.792Z,18.10
2022-12-09T06:00:56.407Z,18.83
2022-12-09T06:03:24.233Z,18.77
2022-12-09T06:05:52.114Z,18.43
2022-12-09T06:08:19.715Z,17.87
2022-12-09T06:10:48.025Z,18.20
2022-12-09T06:13:15.417Z,18.80
2022-12-09T06:15:43.043Z,19.30
2022-12-09T06:18:10.717Z,16.97
2022-12-09T06:20:41.131Z,17.13
2022-12-09T06:23:09.143Z,17.30
2022-12-09T06:25:36.959Z,17.73
2022-12-09T06:28:04.732Z,17.93
2022-12-09T06:30:32.452Z,18.63
2022-12-09T06:33:00.737Z,16.10
2022-12-09T06:35:28.540Z,22.90
2022-12-09T06:37:55.878Z,18.27
2022-12-09T06:40:23.481Z,18.00
2022-12-09T06:42:51.246Z,17.73
2022-12-09T06:45:19.354Z,17.10
2022-12-09T06:47:46.831Z,17.20
2022-12-09T06:50:14.566Z,19.60
2022-12-09T06:52:42.224Z,19.70
2022-12-09T06:55:10.168Z,16.30
2022-12-09T06:57:37.585Z,17.90
2022-12-09T07:00:05.916Z,18.63
2022-12-09T07:02:36.734Z,18.60
2022-12-09T07:05:04.787Z,19.67
2022-12-09T07:07:33.172Z,18.30
2022-12-09T07:10:02.997Z,21.13
2022-12-09T07:12:30.342Z,19.17
2022-12-09T07:14:57.611Z,19.67
2022-12-09T07:17:24.935Z,20.17
2022-12-09T07:19:52.788Z,17.47
2022-12-09T07:22:20.356Z,18.57
2022-12-09T07:24:47.614Z,18.57
2022-12-09T07:27:19.271Z,18.43
2022-12-09T07:29:47.295Z,17.97
2022-12-09T07:32:14.885Z,17.40
2022-12-09T07:34:42.437Z,18.97
2022-12-09T07:37:10.396Z,18.13
2022-12-09T07:39:38.248Z,17.60
2022-12-09T07:42:05.951Z,18.67
2022-12-09T07:44:44.972Z,17.70
2022-12-09T07:47:12.450Z,18.57
2022-12-09T07:49:39.968Z,18.83
2022-12-09T07:52:07.700Z,17.30
2022-12-09T07:54:35.553Z,18.57
2022-12-09T07:57:03.040Z,18.83
2022-12-09T07:59:30.688Z,19.50
2022-12-09T08:02:01.161Z,18.63
2022-12-09T08:04:33.110Z,17.67
2022-12-09T08:07:01.690Z,18.13
2022-12-09T08:09:29.415Z,17.90
2022-12-09T08:11:56.828Z,18.53
2022-12-09T08:14:24.620Z,19.10
2022-12-09T08:16:54.196Z,18.27
2022-12-09T08:19:22.043Z,18.53
2022-12-09T08:21:54.308Z,16.67
2022-12-09T08:24:22.139Z,17.80
2022-12-09T08:26:50.572Z,17.47
2022-12-09T08:29:18.311Z,19.37
2022-12-09T08:31:45.996Z,17.40
2022-12-09T08:34:14.582Z,18.63
2022-12-09T08:36:43.250Z,16.97
2022-12-09T08:39:11.593Z,19.33
2022-12-09T08:41:39.998Z,18.63
2022-12-09T08:44:12.278Z,17.03
2022-12-09T08:46:41.729Z,17.40
2022-12-09T08:49:09.312Z,18.10
2022-12-09T08:51:36.839Z,16.70
2022-12-09T08:54:05.851Z,16.63
2022-12-09T08:56:33.507Z,18.13
2022-12-09T08:59:01.274Z,21.00
2022-12-09T09:01:32.638Z,15.53
2022-12-09T09:04:08.734Z,16.10
2022-12-09T09:06:37.666Z,15.60
2022-12-09T09:09:06.900Z,14.40
2022-12-09T09:11:34.868Z,15.77
2022-12-09T09:14:05.130Z,16.90
2022-12-09T09:16:33.101Z,15.20
2022-12-09T09:19:01.197Z,15.30
2022-12-09T09:21:28.544Z,15.27
2022-12-09T09:23:55.873Z,15.27
2022-12-09T09:26:25.587Z,16.60
2022-12-09T09:28:54.555Z,15.20
2022-12-09T09:31:23.129Z,15.80
2022-12-09T09:33:51.162Z,14.40
2022-12-09T09:36:20.931Z,14.67
2022-12-09T09:38:53.096Z,15.07
2022-12-09T09:41:42.741Z,14.67
2022-12-09T09:44:19.008Z,13.13
2022-12-09T09:46:48.161Z,13.73
2022-12-09T09:49:23.824Z,13.73
2022-12-09T09:51:51.294Z,12.93
2022-12-09T09:54:18.778Z,13.10
2022-12-09T09:56:55.183Z,13.47
2022-12-09T09:59:27.914Z,13.70
2022-12-09T10:02:14.843Z,12.70
2022-12-09T10:04:47.062Z,13.40
2022-12-09T10:07:19.068Z,12.30
2022-12-09T10:09:57.662Z,13.70
2022-12-09T10:12:31.534Z,12.20
2022-12-09T10:15:13.215Z,12.40
2022-12-09T10:17:51.211Z,12.20
2022-12-09T10:20:37.687Z,12.30
2022-12-09T10:23:06.979Z,11.40
2022-12-09T10:25:38.324Z,12.93
2022-12-09T10:28:08.689Z,11.03
2022-12-09T10:30:43.634Z,11.93
2022-12-09T10:33:15.856Z,11.50
2022-12-09T10:35:43.395Z,11.83
2022-12-09T10:38:19.616Z,12.33
2022-12-09T10:40:47.104Z,10.93
2022-12-09T10:43:38.733Z,12.47
2022-12-09T10:46:17.954Z,10.97
2022-12-09T10:48:46.899Z,10.90
2022-12-09T10:51:15.091Z,11.20
2022-12-09T10:53:50.398Z,10.83
2022-12-09T10:56:23.466Z,12.50
2022-12-09T10:58:51.050Z,11.93
2022-12-09T11:01:18.535Z,12.83
2022-12-09T11:03:53.608Z,12.53
2022-12-09T11:06:23.670Z,12.63
2022-12-09T11:09:02.291Z,14.33
2022-12-09T11:11:59.463Z,13.53
2022-12-09T11:14:37.516Z,12.27
2022-12-09T11:17:14.600Z,13.50
2022-12-09T11:19:42.947Z,13.50
2022-12-09T11:22:40.245Z,15.47
2022-12-09T11:25:15.739Z,13.77
2022-12-09T11:27:48.768Z,12.43
2022-12-09T11:30:19.815Z,11.50
2022-12-09T11:32:56.623Z,12.63
2022-12-09T11:35:29.664Z,12.60
2022-12-09T11:37:58.574Z,12.63
2022-12-09T11:40:27.432Z,14.30
2022-12-09T11:42:55.602Z,12.73
2022-12-09T11:45:28.248Z,13.10
2022-12-09T11:50:50.406Z,12.60
2022-12-09T11:53:35.702Z,13.80
2022-12-09T11:56:17.516Z,12.37
2022-12-09T11:58:48.625Z,12.17
2022-12-09T12:01:21.651Z,12.83
2022-12-09T12:03:50.664Z,11.67
2022-12-09T12:06:38.042Z,12.17
2022-12-09T12:09:08.130Z,13.00
2022-12-09T12:11:37.976Z,12.93
2022-12-09T12:14:26.804Z,11.80
2022-12-09T12:17:14.009Z,10.67
2022-12-09T12:19:42.231Z,11.37
2022-12-09T12:22:29.785Z,11.63
2022-12-09T12:25:17.465Z,13.43
2022-12-09T12:27:51.662Z,12.70
2022-12-09T12:30:20.937Z,11.53
2022-12-09T12:33:11.823Z,11.50
2022-12-09T12:35:38.132Z,12.27
2022-12-09T12:38:11.270Z,12.70
2022-12-09T12:40:43.286Z,11.70
2022-12-09T12:43:48.233Z,12.00
2022-12-09T12:46:23.283Z,10.00
2022-12-09T12:48:59.233Z,10.33
2022-12-09T12:51:29.138Z,12.50
2022-12-09T12:53:56.308Z,10.80
2022-12-09T12:56:41.859Z,12.00
2022-12-09T12:59:18.114Z,12.07
2022-12-09T13:02:08.516Z,10.90
2022-12-09T13:04:40.587Z,11.00
2022-12-09T13:07:12.183Z,11.83
2022-12-09T13:09:44.507Z,11.73
2022-12-09T13:12:39.839Z,10.83
2022-12-09T13:15:10.995Z,10.43
2022-12-09T13:17:38.533Z,12.03
2022-12-09T13:20:06.351Z,11.50
2022-12-09T13:22:40.203Z,10.70
2022-12-09T13:25:07.473Z,11.47
2022-12-09T13:27:50.947Z,12.30
2022-12-09T13:30:21.483Z,10.73
2022-12-09T13:33:05.241Z,10.53
2022-12-09T13:35:40.294Z,11.50
2022-12-09T13:38:24.202Z,12.73
2022-12-09T13:40:51.337Z,11.97
2022-12-09T13:43:23.872Z,10.90
2022-12-09T13:45:53.338Z,12.60
2022-12-09T13:48:20.480Z,10.07
2022-12-09T13:50:57.547Z,11.57
2022-12-09T13:53:26.905Z,10.90
2022-12-09T13:55:55.820Z,11.57
2022-12-09T13:58:47.698Z,13.80
2022-12-09T14:01:33.757Z,12.00
2022-12-09T14:04:21.600Z,10.40
2022-12-09T14:07:10.289Z,11.13
2022-12-09T14:09:47.086Z,10.20
2022-12-09T14:12:42.575Z,11.30
2022-12-09T14:15:23.748Z,10.17
2022-12-09T14:17:50.858Z,11.33
2022-12-09T14:20:22.041Z,10.73
2022-12-09T14:23:11.767Z,10.57
2022-12-09T14:25:38.870Z,10.80
2022-12-09T14:28:12.401Z,9.73
2022-12-09T14:30:39.556Z,11.67
2022-12-09T14:33:22.083Z,11.33
2022-12-09T14:35:51.506Z,11.00
2022-12-09T14:38:26.014Z,10.07
2022-12-09T14:41:04.528Z,10.77
2022-12-09T14:43:37.577Z,11.57
2022-12-09T14:46:25.166Z,10.53
2022-12-09T14:49:01.871Z,11.70
2022-12-09T14:51:35.632Z,12.93
2022-12-09T14:54:08.267Z,11.90
2022-12-09T14:56:35.474Z,12.90
2022-12-09T14:59:08.044Z,13.00
2022-12-09T15:02:10.571Z,13.40
2022-12-09T15:04:45.014Z,13.80
2022-12-09T15:07:15.545Z,13.07
2022-12-09T15:09:54.990Z,12.80
2022-12-09T15:12:32.837Z,12.80
2022-12-09T15:15:20.210Z,12.73
2022-12-09T15:17:47.348Z,12.47
2022-12-09T15:20:22.458Z,12.37
2022-12-09T15:22:52.951Z,12.37
2022-12-09T15:25:21.008Z,12.37
2022-12-09T15:28:00.173Z,13.33
2022-12-09T15:30:32.227Z,12.10
2022-12-09T15:32:59.404Z,12.30
2022-12-09T15:35:33.832Z,12.13
2022-12-09T15:38:03.925Z,12.13
2022-12-09T15:40:32.681Z,13.03
2022-12-09T15:43:02.277Z,13.03
2022-12-09T15:45:31.817Z,13.27
2022-12-09T15:48:07.685Z,12.07
2022-12-09T15:50:37.980Z,11.23
2022-12-09T15:53:05.163Z,13.33
2022-12-09T15:55:37.962Z,12.80
2022-12-09T15:58:06.901Z,12.57
2022-12-09T16:00:37.894Z,12.20
2022-12-09T16:03:05.704Z,11.37
2022-12-09T16:05:36.001Z,11.43
2022-12-09T16:08:07.317Z,12.83
2022-12-09T16:10:46.131Z,12.17
2022-12-09T16:13:15.292Z,11.80
2022-12-09T16:15:45.924Z,12.87
2022-12-09T16:18:18.266Z,11.43
2022-12-09T16:20:56.144Z,12.80
2022-12-09T16:23:24.863Z,10.67
2022-12-09T16:25:52.387Z,12.97
2022-12-09T16:28:21.730Z,12.40
2022-12-09T16:30:50.334Z,12.00
2022-12-09T16:33:19.157Z,12.00
2022-12-09T16:35:55.112Z,11.47
2022-12-09T16:38:22.235Z,11.80
2022-12-09T16:40:52.465Z,13.03
2022-12-09T16:43:21.768Z,11.83
2022-12-09T16:45:56.169Z,11.77
2022-12-09T16:48:24.620Z,12.00
2022-12-09T16:51:11.761Z,12.17
2022-12-09T16:53:43.363Z,10.33
2022-12-09T16:56:17.054Z,11.93
2022-12-09T16:58:44.192Z,11.60
2022-12-09T17:01:13.745Z,11.27
2022-12-09T17:03:45.803Z,12.10
2022-12-09T17:06:17.566Z,11.30
2022-12-09T17:08:45.151Z,11.60
2022-12-09T17:11:12.422Z,11.37
2022-12-09T17:13:39.873Z,12.30
2022-12-09T17:16:07.649Z,11.40
2022-12-09T17:18:36.407Z,14.53
2022-12-09T17:21:04.897Z,10.83
2022-12-09T17:23:39.128Z,15.30
2022-12-09T17:26:08.078Z,12.43
2022-12-09T17:28:35.727Z,12.10
2022-12-09T17:31:07.463Z,12.90
2022-12-09T17:33:35.019Z,14.47
2022-12-09T17:36:02.176Z,13.67
2022-12-09T17:38:30.535Z,11.53
2022-12-09T17:40:57.744Z,13.90
2022-12-09T17:43:24.905Z,13.67
2022-12-09T17:45:52.112Z,13.93
2022-12-09T17:48:19.335Z,12.00
2022-12-09T17:50:46.556Z,13.00
2022-12-09T17:53:13.683Z,14.93
2022-12-09T17:55:40.882Z,13.03
2022-12-09T17:58:08.037Z,14.90
2022-12-09T18:00:35.221Z,13.60
2022-12-09T18:03:02.357Z,14.03
2022-12-09T18:05:30.021Z,14.07
2022-12-09T18:07:57.243Z,14.50
2022-12-09T18:10:24.427Z,14.37
2022-12-09T18:12:51.586Z,16.10
2022-12-09T18:15:18.827Z,15.23
2022-12-09T18:17:45.939Z,14.87
2022-12-09T18:20:13.186Z,15.57
2022-12-09T18:22:42.816Z,17.10
2022-12-09T18:25:09.998Z,16.20
2022-12-09T18:27:39.425Z,16.97
2022-12-09T18:30:07.265Z,15.20
2022-12-09T18:32:36.322Z,15.53
2022-12-09T18:35:03.664Z,17.03
2022-12-09T18:37:30.809Z,16.27
2022-12-09T18:39:57.979Z,15.37
2022-12-09T18:42:25.078Z,16.23
2022-12-09T18:44:52.186Z,16.07
2022-12-09T18:47:19.352Z,17.57
2022-12-09T18:49:46.472Z,17.63
2022-12-09T18:52:13.627Z,15.83
2022-12-09T18:54:40.735Z,16.37
2022-12-09T18:57:07.870Z,17.23
2022-12-09T18:59:35.016Z,16.30
2022-12-09T19:02:02.159Z,17.53
2022-12-09T19:04:29.677Z,16.50
2022-12-09T19:06:58.214Z,15.90
2022-12-09T19:09:28.340Z,16.37
2022-12-09T19:11:56.904Z,16.90
2022-12-09T19:14:24.558Z,16.83
2022-12-09T19:16:52.087Z,17.93
2022-12-09T19:19:21.447Z,17.43
2022-12-09T19:21:49.165Z,18.47
2022-12-09T19:24:17.650Z,20.40
2022-12-09T19:26:45.191Z,16.60
2022-12-09T19:29:13.007Z,16.07
2022-12-09T19:31:41.729Z,16.83
2022-12-09T19:34:12.716Z,18.10
2022-12-09T19:36:39.988Z,19.77
2022-12-09T19:39:08.516Z,19.33
2022-12-09T19:41:36.213Z,17.57
2022-12-09T19:44:04.593Z,18.23
2022-12-09T19:46:32.150Z,18.60
2022-12-09T19:48:59.605Z,18.23
2022-12-09T19:51:28.834Z,17.40
2022-12-09T19:53:57.576Z,17.33
2022-12-09T19:56:25.127Z,17.50
2022-12-09T19:58:52.780Z,19.90
2022-12-09T20:01:21.633Z,18.90
2022-12-09T20:03:50.085Z,16.80
2022-12-09T20:06:19.051Z,19.40
2022-12-09T20:08:46.963Z,17.17
2022-12-09T20:11:15.583Z,18.43
2022-12-09T20:13:42.867Z,17.97
2022-12-09T20:16:11.285Z,18.70
2022-12-09T20:18:38.676Z,18.73
2022-12-09T20:21:06.997Z,16.57
2022-12-09T20:23:37.982Z,18.07
2022-12-09T20:26:06.527Z,19.83
2022-12-09T20:28:34.057Z,17.50
2022-12-09T20:31:05.002Z,18.37
2022-12-09T20:33:32.213Z,20.60
2022-12-09T20:36:16.539Z,16.90
2022-12-09T20:38:48.377Z,19.00
2022-12-09T20:41:15.849Z,17.17
2022-12-09T20:43:44.391Z,17.70
2022-12-09T20:46:22.158Z,18.77
2022-12-09T20:48:49.729Z,16.87
2022-12-09T20:51:23.632Z,17.83
2022-12-09T20:53:50.998Z,16.77
2022-12-09T20:56:18.904Z,14.70
2022-12-09T20:58:46.713Z,17.60
2022-12-09T21:01:18.086Z,18.40
2022-12-09T21:03:45.412Z,16.90
2022-12-09T21:06:13.535Z,17.60
2022-12-09T21:08:40.682Z,18.20
2022-12-09T21:11:09.095Z,16.87
2022-12-09T21:13:37.620Z,20.07
2022-12-09T21:16:09.045Z,16.73
2022-12-09T21:18:36.998Z,17.07
2022-12-09T21:21:05.389Z,16.23
2022-12-09T21:23:35.111Z,15.40
2022-12-09T21:26:16.058Z,17.33
2022-12-09T21:28:44.028Z,17.50
2022-12-09T21:31:19.368Z,16.20
2022-12-09T21:33:47.875Z,18.30
2022-12-09T21:36:16.503Z,16.40
2022-12-09T21:38:43.853Z,16.57
2022-12-09T21:41:13.215Z,17.20
2022-12-09T21:43:40.819Z,17.43
2022-12-09T21:46:09.121Z,17.40
2022-12-09T21:48:36.479Z,17.53
2022-12-09T21:51:03.660Z,16.20
2022-12-09T21:53:31.054Z,16.70
2022-12-09T21:56:02.400Z,16.30
2022-12-09T21:58:30.719Z,17.57
2022-12-09T22:00:58.106Z,18.10
2022-12-09T22:03:26.052Z,17.20
2022-12-09T22:05:58.132Z,17.07
2022-12-09T22:08:26.530Z,18.40
2022-12-09T22:10:53.894Z,17.40
2022-12-09T22:13:22.576Z,17.00
2022-12-09T22:15:49.703Z,18.57
2022-12-09T22:18:17.008Z,17.50
2022-12-09T22:21:16.022Z,16.60
2022-12-09T22:23:31.292Z,17.77
2022-12-09T22:25:58.484Z,19.23
2022-12-09T22:28:26.548Z,17.40
2022-12-09T22:30:53.753Z,18.00
2022-12-09T22:33:20.939Z,18.10
2022-12-09T22:35:48.060Z,18.03
2022-12-09T22:38:15.231Z,19.00
2022-12-09T22:40:42.636Z,17.43
2022-12-09T22:43:09.760Z,18.93
2022-12-09T22:45:37.068Z,17.50
2022-12-09T22:48:04.553Z,18.67
2022-12-09T22:50:31.676Z,18.00
2022-12-09T22:52:58.763Z,17.53
2022-12-09T22:55:25.864Z,18.60
2022-12-09T22:57:52.954Z,17.77
2022-12-09T23:00:20.184Z,16.80
2022-12-09T23:02:47.635Z,17.50
2022-12-09T23:05:15.226Z,19.20
2022-12-09T23:07:42.576Z,18.53
2022-12-09T23:10:10.850Z,18.70
2022-12-09T23:12:38.440Z,17.47
2022-12-09T23:15:06.222Z,17.00
2022-12-09T23:17:34.856Z,16.70
2022-12-09T23:20:03.065Z,17.20
2022-12-09T23:22:30.555Z,17.80
2022-12-09T23:24:58.062Z,18.50
2022-12-09T23:27:25.531Z,16.63
2022-12-09T23:29:52.971Z,17.37
2022-12-09T23:32:21.266Z,16.07
2022-12-09T23:34:48.717Z,16.70
2022-12-09T23:37:16.175Z,17.67
2022-12-09T23:39:43.583Z,16.30
2022-12-09T23:42:10.996Z,17.00
2022-12-09T23:44:38.815Z,16.67
2022-12-09T23:47:06.341Z,16.10
2022-12-09T23:49:33.807Z,18.23
2022-12-09T23:52:01.142Z,15.70
2022-12-09T23:54:28.563Z,15.47
2022-12-09T23:56:56.003Z,17.50
2022-12-09T23:59:24.975Z,17.50
